Time;durP1;ratioP1;P1;durP2;ratioP2;P2;SDS_P1;SDS_P2;PMS_P1;PMS_P2;Temp;Humidity;BMP_temperature;BMP_pressure;BME280_temperature;BME280_humidity;BME280_pressure;Samples;Min_cycle;Max_cycle;Signal;HPM_P1;HPM_P2
2022/06/14 04:30:38;;;;;;;;;2.00;2.00;;;;;19.09;45.14;101747.16;5031104;28;45573;-73
2022/06/14 04:33:19;;;;;;;;;4.00;4.00;;;;;19.11;45.23;101746.09;5035251;28;45460;-71
2022/06/14 04:35:52;;;;;;;;;1.75;1.75;;;;;19.13;44.93;101741.44;5036035;28;45324;-72
2022/06/14 04:38:28;;;;;;;;;4.25;3.00;;;;;19.13;45.12;101740.56;5035614;28;45269;-72
2022/06/14 04:41:06;;;;;;;;;2.50;2.50;;;;;19.11;45.15;101737.94;5035750;28;45420;-71
2022/06/14 04:43:42;;;;;;;;;3.00;3.00;;;;;19.13;45.38;101732.41;5035773;28;45778;-73
2022/06/14 04:46:14;;;;;;;;;2.00;2.00;;;;;19.15;44.79;101739.47;5033432;28;45616;-73
2022/06/14 04:48:55;;;;;;;;;3.00;3.00;;;;;19.17;44.64;101733.94;5031408;28;45406;-70
2022/06/14 04:51:33;;;;;;;;;2.75;2.75;;;;;19.19;44.95;101734.72;5020543;28;45402;-71
2022/06/14 04:54:01;;;;;;;;;3.00;3.00;;;;;19.17;44.87;101732.09;5035190;28;45599;-73
2022/06/14 04:56:36;;;;;;;;;3.50;2.50;;;;;19.17;45.13;101725.78;5035493;28;45480;-72
2022/06/14 04:59:13;;;;;;;;;3.00;3.00;;;;;19.19;45.03;101727.44;5035268;28;45243;-73
2022/06/14 05:01:56;;;;;;;;;4.50;3.25;;;;;19.24;44.74;101730.72;5035314;28;45380;-73
2022/06/14 05:04:32;;;;;;;;;3.00;3.00;;;;;19.24;44.77;101730.72;5035248;28;46285;-73
2022/06/14 05:07:08;;;;;;;;;3.25;3.25;;;;;19.24;45.11;101729.84;5036682;28;45371;-73
2022/06/14 05:09:39;;;;;;;;;3.00;3.00;;;;;19.20;44.97;101718.31;5036900;28;45275;-68
2022/06/14 05:12:14;;;;;;;;;4.25;3.00;;;;;19.26;45.43;101727.91;5035068;28;45280;-75
2022/06/14 05:14:48;;;;;;;;;3.00;3.00;;;;;19.30;45.40;101721.28;5034995;28;45383;-73
2022/06/14 05:17:53;;;;;;;;;3.00;3.00;;;;;19.42;45.53;101730.47;5035053;28;45513;-74
2022/06/14 05:20:31;;;;;;;;;2.50;2.50;;;;;19.45;45.79;101733.84;4953703;28;45383;-75
2022/06/14 05:23:06;;;;;;;;;2.50;2.50;;;;;19.43;45.84;101718.59;5034855;28;45503;-74
2022/06/14 05:25:46;;;;;;;;;2.00;2.00;;;;;19.52;45.93;101731.63;5034290;28;45489;-78
2022/06/14 05:28:14;;;;;;;;;4.75;3.00;;;;;19.50;45.77;101728.13;5035298;28;45463;-77
2022/06/14 05:30:55;;;;;;;;;4.00;4.00;;;;;19.58;44.82;101732.06;5016209;28;45349;-77
2022/06/14 05:33:48;;;;;;;;;4.25;4.25;;;;;19.59;45.18;101725.66;5035440;28;45293;-75
2022/06/14 05:36:29;;;;;;;;;3.00;3.00;;;;;19.63;45.03;101727.22;5035150;28;45527;-75
2022/06/14 05:38:59;;;;;;;;;3.50;3.50;;;;;19.61;44.91;101728.28;5035094;28;45354;-77
2022/06/14 05:41:32;;;;;;;;;5.00;4.00;;;;;19.72;44.96;101738.44;5017040;28;45561;-78
2022/06/14 05:44:10;;;;;;;;;4.00;4.00;;;;;19.72;44.73;101739.31;5033856;28;46052;-77
2022/06/14 05:47:07;;;;;;;;;4.25;4.25;;;;;19.79;44.57;101737.03;5034451;28;45328;-78
2022/06/14 05:49:41;;;;;;;;;5.75;4.00;;;;;19.88;44.10;101733.69;5033087;28;45357;-76
2022/06/14 05:52:28;;;;;;;;;5.00;5.00;;;;;19.95;44.36;101741.31;5016964;28;45297;-77
2022/06/14 05:55:02;;;;;;;;;7.00;5.25;;;;;20.04;44.81;101742.53;5034770;28;45569;-79
2022/06/14 05:57:36;;;;;;;;;5.00;5.00;;;;;20.07;44.64;101736.88;5003403;28;47962;-79
2022/06/14 06:00:10;;;;;;;;;3.00;3.00;;;;;20.11;44.45;101737.53;5034480;28;45313;-78
2022/06/14 06:03:03;;;;;;;;;4.00;4.00;;;;;20.18;44.49;101736.09;5034691;28;45386;-78
2022/06/14 06:05:44;;;;;;;;;5.50;3.75;;;;;20.17;43.44;101729.78;5035108;28;45443;-79
2022/06/14 06:08:18;;;;;;;;;3.00;3.00;;;;;20.10;42.92;101719.44;5035232;28;45398;-76
2022/06/14 06:10:48;;;;;;;;;4.75;3.25;;;;;20.20;44.16;101731.44;5035025;28;45289;-77
2022/06/14 06:13:26;;;;;;;;;2.25;2.25;;;;;20.16;43.06;101714.44;5034747;28;45339;-79
2022/06/14 06:15:57;;;;;;;;;2.75;2.75;;;;;20.29;42.70;101728.06;5034007;28;45380;-81
2022/06/14 06:18:34;;;;;;;;;3.00;3.00;;;;;20.30;43.28;101721.63;5034066;28;46451;-77
2022/06/14 06:21:20;;;;;;;;;5.00;3.75;;;;;20.29;43.61;101709.00;5034093;28;45268;-78
2022/06/14 06:23:59;;;;;;;;;4.75;4.00;;;;;20.43;43.37;101717.06;5033961;28;45224;-77
2022/06/14 06:26:30;;;;;;;;;3.00;3.00;;;;;20.44;42.55;101712.50;5033755;28;45570;-78
2022/06/14 06:29:06;;;;;;;;;2.00;2.00;;;;;20.31;42.80;101682.53;5015906;28;46224;-77
2022/06/14 06:31:35;;;;;;;;;6.25;4.00;;;;;20.54;42.43;101709.00;5033734;28;45241;-79
2022/06/14 06:34:03;;;;;;;;;4.00;4.00;;;;;20.49;42.56;101694.88;5016187;28;45395;-77
2022/06/14 06:36:57;;;;;;;;;5.00;5.00;;;;;20.62;42.40;101703.88;5034030;28;45230;-77
2022/06/14 06:39:41;;;;;;;;;4.25;4.25;;;;;20.69;41.61;101707.03;4976477;28;46017;-76
2022/06/14 06:42:14;;;;;;;;;4.00;4.00;;;;;20.72;42.58;101706.81;5024560;28;45417;-78
2022/06/14 06:44:54;;;;;;;;;4.50;4.50;;;;;20.73;41.90;101714.88;5037970;28;45448;-78
2022/06/14 06:47:34;;;;;;;;;4.00;4.00;;;;;20.81;42.17;101716.16;5037606;28;45337;-77
2022/06/14 06:50:21;;;;;;;;;4.00;4.00;;;;;20.82;41.24;101715.19;5019438;28;46282;-79
2022/06/14 06:52:53;;;;;;;;;4.00;4.00;;;;;20.87;41.52;101712.97;5036813;28;45328;-78
2022/06/14 06:55:33;;;;;;;;;2.25;2.25;;;;;20.90;42.25;101716.38;5037786;28;45534;-77
2022/06/14 06:58:02;;;;;;;;;3.00;3.00;;;;;20.90;42.68;101702.72;5037460;28;46077;-77
2022/06/14 07:00:29;;;;;;;;;3.25;3.25;;;;;21.02;42.03;101711.84;5037125;28;45271;-77
2022/06/14 07:03:04;;;;;;;;;2.50;2.50;;;;;21.02;41.76;101706.38;5037559;28;45457;-77
2022/06/14 07:05:30;;;;;;;;;5.00;5.00;;;;;21.06;41.25;101706.06;5037395;28;45391;-76
2022/06/14 07:08:02;;;;;;;;;3.00;3.00;;;;;21.09;41.23;101702.25;5037250;28;45505;-77
2022/06/14 07:10:45;;;;;;;;;6.75;5.00;;;;;21.15;41.72;101704.50;5019390;28;46127;-77
2022/06/14 07:13:19;;;;;;;;;4.25;4.25;;;;;21.21;41.32;101705.91;5037233;28;45250;-78
2022/06/14 07:15:51;;;;;;;;;5.00;3.50;;;;;21.23;41.24;101695.78;5036995;28;45565;-76
2022/06/14 07:18:20;;;;;;;;;4.50;4.50;;;;;21.31;40.96;101704.25;5037041;28;45305;-77
2022/06/14 07:21:14;;;;;;;;;4.00;4.00;;;;;21.32;41.05;101704.13;5036955;28;45348;-77
2022/06/14 07:23:45;;;;;;;;;4.00;4.00;;;;;21.36;40.95;101692.00;5036541;28;45308;-77
2022/06/14 07:26:11;;;;;;;;;1.75;1.75;;;;;21.43;41.40;101684.22;5018936;28;45489;-79
2022/06/14 07:28:42;;;;;;;;;1.00;1.00;;;;;21.50;41.46;101697.28;5036711;28;45292;-76
2022/06/14 07:31:17;;;;;;;;;6.00;4.25;;;;;21.59;40.97;101687.53;5036774;28;45321;-77
2022/06/14 07:33:43;;;;;;;;;4.75;4.75;;;;;21.62;41.06;101681.81;5023889;28;45395;-79
2022/06/14 07:36:20;;;;;;;;;3.25;3.25;;;;;21.67;40.47;101684.19;5037401;28;45541;-77
2022/06/14 07:38:52;;;;;;;;;6.25;5.00;;;;;21.69;40.35;101682.22;5037339;28;45470;-76
2022/06/14 07:41:38;;;;;;;;;3.50;2.50;;;;;21.67;40.26;101681.47;5018459;28;46670;-76
2022/06/14 07:44:19;;;;;;;;;7.25;6.00;;;;;21.57;41.33;101669.50;5036399;28;45372;-77
2022/06/14 07:47:03;;;;;;;;;6.25;6.25;;;;;21.61;40.31;101677.34;5036810;28;45284;-76
2022/06/14 07:49:53;;;;;;;;;5.00;4.25;;;;;21.59;40.50;101670.28;5036100;28;45549;-77
2022/06/14 07:52:45;;;;;;;;;5.75;4.00;;;;;21.55;40.67;101679.66;5036414;28;46129;-79
2022/06/14 07:55:25;;;;;;;;;4.75;4.25;;;;;21.56;40.79;101682.28;5036217;28;45486;-77
2022/06/14 07:58:09;;;;;;;;;5.75;5.75;;;;;21.53;40.70;101669.75;5036639;28;45470;-76
2022/06/14 08:03:48;;;;;;;;;4.75;3.25;;;;;21.70;40.12;101668.44;5036494;28;46276;-78
2022/06/14 08:06:20;;;;;;;;;2.75;2.75;;;;;21.77;40.82;101663.38;5036503;28;45500;-78
2022/06/14 08:08:51;;;;;;;;;5.75;3.00;;;;;21.79;39.75;101655.94;5037398;28;45332;-77
2022/06/14 08:11:28;;;;;;;;;5.50;4.00;;;;;21.76;39.78;101635.22;5037655;28;45325;-77
2022/06/14 08:14:00;;;;;;;;;4.75;4.50;;;;;21.87;39.86;101648.88;5038900;28;45445;-77
2022/06/14 08:16:28;;;;;;;;;3.75;3.75;;;;;21.89;39.76;101637.84;5039130;28;45462;-77
2022/06/14 08:19:07;;;;;;;;;4.00;4.00;;;;;21.91;39.54;101638.59;5038496;28;45203;-76
2022/06/14 08:21:46;;;;;;;;;2.75;2.75;;;;;22.04;39.49;101650.28;5036528;28;45560;-77
2022/06/14 08:24:26;;;;;;;;;4.00;4.00;;;;;22.01;39.51;101636.91;5036364;28;46408;-77
2022/06/14 08:27:20;;;;;;;;;5.25;4.00;;;;;22.11;38.91;101646.13;5036314;28;45237;-80
2022/06/14 08:29:55;;;;;;;;;4.00;4.00;;;;;22.13;38.98;101645.97;5036634;28;45545;-77
2022/06/14 08:32:42;;;;;;;;;4.75;4.75;;;;;22.17;39.27;101651.06;5036306;28;45424;-78
2022/06/14 08:35:33;;;;;;;;;6.00;3.25;;;;;22.20;38.77;101641.78;5036437;28;46290;-78
2022/06/14 08:38:00;;;;;;;;;5.00;4.25;;;;;22.22;39.07;101631.56;5021384;28;45241;-78
2022/06/14 08:40:25;;;;;;;;;0.00;0.00;;;;;22.30;38.94;101641.88;5036220;28;45460;-79
2022/06/14 08:42:57;;;;;;;;;7.25;6.00;;;;;22.24;38.77;101633.19;5035584;28;45604;-77
2022/06/14 08:45:40;;;;;;;;;5.00;5.00;;;;;22.41;38.92;101645.50;5035548;28;46078;-77
2022/06/14 08:48:18;;;;;;;;;2.50;1.50;;;;;22.44;39.38;101633.44;5035672;28;45481;-78
2022/06/14 08:51:10;;;;;;;;;3.00;3.00;;;;;22.49;39.23;101640.25;5028975;28;45542;-76
2022/06/14 08:53:54;;;;;;;;;5.00;5.00;;;;;22.53;38.64;101639.03;5010216;28;45426;-76
2022/06/14 08:56:51;;;;;;;;;5.00;5.00;;;;;22.57;38.97;101632.31;5017255;28;48371;-78
2022/06/14 08:59:26;;;;;;;;;5.00;4.00;;;;;22.58;38.84;101634.03;4974204;28;45548;-77
2022/06/14 09:02:36;;;;;;;;;5.75;5.75;;;;;22.60;38.38;101623.88;5035736;28;45387;-77
2022/06/14 09:05:19;;;;;;;;;6.00;6.00;;;;;22.70;38.96;101637.66;4954037;28;45567;-76
2022/06/14 09:08:03;;;;;;;;;4.50;4.50;;;;;22.75;38.57;101629.09;5015949;28;45967;-75
2022/06/14 09:11:05;;;;;;;;;4.00;4.00;;;;;22.76;38.42;101625.34;5035082;28;45334;-77
2022/06/14 09:13:52;;;;;;;;;6.75;5.00;;;;;22.76;38.56;101630.81;5017020;28;46048;-78
2022/06/14 09:16:39;;;;;;;;;4.25;3.25;;;;;22.80;38.21;101638.63;5035158;28;45384;-77
2022/06/14 09:19:21;;;;;;;;;4.50;4.25;;;;;22.78;37.97;101621.50;5035046;28;46162;-77
2022/06/14 09:22:02;;;;;;;;;7.75;4.75;;;;;22.79;37.81;101622.38;5035558;28;45372;-76
2022/06/14 09:24:27;;;;;;;;;3.75;3.75;;;;;22.80;38.05;101629.56;5017220;28;45372;-77
2022/06/14 09:27:21;;;;;;;;;3.25;3.25;;;;;22.80;37.66;101621.34;5035240;28;45462;-78
2022/06/14 09:30:15;;;;;;;;;3.00;3.00;;;;;22.79;37.58;101631.44;4944207;28;46376;-77
2022/06/14 09:33:14;;;;;;;;;4.00;4.00;;;;;22.85;37.68;101622.72;5034318;28;45547;-79
2022/06/14 09:36:17;;;;;;;;;5.00;5.00;;;;;22.88;36.68;101622.44;5034740;28;45582;-78
2022/06/14 09:39:00;;;;;;;;;5.00;5.00;;;;;22.90;37.07;101615.00;5033982;28;46022;-79
2022/06/14 09:42:03;;;;;;;;;3.50;3.50;;;;;22.93;37.14;101612.00;5034532;28;45367;-76
2022/06/14 09:45:15;;;;;;;;;5.00;5.00;;;;;22.95;36.97;101615.50;5034294;28;45318;-77
2022/06/14 09:48:18;;;;;;;;;5.00;3.50;;;;;22.98;37.35;101617.09;5024386;28;45305;-78
2022/06/14 09:50:53;;;;;;;;;3.50;3.50;;;;;22.87;37.57;101614.41;5027383;28;45926;-77
2022/06/14 09:53:55;;;;;;;;;5.25;4.00;;;;;23.00;37.40;101623.31;5034573;28;46063;-76
2022/06/14 09:56:58;;;;;;;;;4.25;3.00;;;;;23.00;37.62;101624.16;5034577;28;45262;-79
2022/06/14 09:59:50;;;;;;;;;4.00;4.00;;;;;23.05;37.23;101617.47;5034239;28;45487;-78
2022/06/14 10:02:30;;;;;;;;;4.50;3.75;;;;;23.11;37.63;101608.72;5034311;28;45373;-76
2022/06/14 10:05:14;;;;;;;;;5.00;5.00;;;;;23.10;37.09;101601.50;5034660;28;45528;-77
2022/06/14 10:08:07;;;;;;;;;6.00;5.00;;;;;23.09;36.85;101597.03;5034189;28;45265;-77
2022/06/14 10:10:42;;;;;;;;;3.50;3.50;;;;;23.05;37.28;101590.97;5034504;28;45492;-79
2022/06/14 10:13:14;;;;;;;;;5.75;4.00;;;;;23.12;37.02;101599.53;5034680;28;45522;-77
2022/06/14 10:16:12;;;;;;;;;5.25;5.25;;;;;23.13;37.03;101599.41;5034566;28;46117;-76
2022/06/14 10:19:01;;;;;;;;;5.25;4.75;;;;;23.15;37.17;101607.44;5034445;28;45417;-78
2022/06/14 10:21:44;;;;;;;;;3.25;3.25;;;;;23.14;36.45;101598.38;5036014;28;45424;-78
2022/06/14 10:24:45;;;;;;;;;5.75;5.00;;;;;23.09;37.04;101588.84;5036567;28;45435;-75
2022/06/14 10:30:42;;;;;;;;;4.50;4.50;;;;;22.98;37.26;101563.25;5032011;28;45384;-75
2022/06/14 10:33:19;;;;;;;;;3.00;3.00;;;;;23.20;37.18;101591.53;5031777;28;45410;-78
2022/06/14 10:36:15;;;;;;;;;6.50;5.00;;;;;23.26;36.95;101582.78;5034139;28;45447;-76
2022/06/14 10:38:55;;;;;;;;;4.00;4.00;;;;;23.29;37.31;101588.88;5021686;28;46112;-78
2022/06/14 10:41:26;;;;;;;;;4.75;4.75;;;;;23.33;36.51;101584.00;5033755;28;45525;-78
2022/06/14 10:43:54;;;;;;;;;3.50;3.50;;;;;23.34;36.82;101578.38;5034050;28;45469;-77
2022/06/14 10:46:45;;;;;;;;;5.75;4.00;;;;;23.38;36.81;101576.28;5033507;28;45549;-77
2022/06/14 10:49:33;;;;;;;;;5.00;5.00;;;;;23.43;36.25;101578.59;5033138;28;45399;-76
2022/06/14 10:52:15;;;;;;;;;4.75;4.75;;;;;23.47;35.97;101564.53;5034558;28;45387;-76
2022/06/14 10:55:15;;;;;;;;;6.00;6.00;;;;;23.50;35.88;101563.41;5034564;28;45354;-80
2022/06/14 10:57:55;;;;;;;;;5.75;5.50;;;;;23.54;36.07;101557.53;5034957;28;45312;-79
2022/06/14 11:01:05;;;;;;;;;6.50;5.00;;;;;23.57;36.72;101554.50;5019616;28;47415;-79
2022/06/14 11:03:46;;;;;;;;;7.00;5.25;;;;;23.64;36.25;101554.88;5036474;28;45230;-81
2022/06/14 11:06:41;;;;;;;;;3.75;3.75;;;;;23.71;36.20;101548.72;5036268;28;45514;-79
2022/06/14 11:09:30;;;;;;;;;6.25;5.00;;;;;23.71;35.83;101540.50;5034549;28;45337;-80
2022/06/14 11:12:28;;;;;;;;;5.00;4.50;;;;;23.80;35.86;101543.44;5035720;28;46184;-78
2022/06/14 11:15:24;;;;;;;;;9.25;5.00;;;;;23.90;35.85;101533.41;5038071;28;45170;-80
2022/06/14 11:18:01;;;;;;;;;8.00;7.00;;;;;23.97;35.03;101535.44;5037266;28;45446;-80
2022/06/14 11:21:03;;;;;;;;;6.75;5.25;;;;;24.00;35.14;101526.94;5036576;28;45333;-78
2022/06/14 11:23:53;;;;;;;;;6.50;5.25;;;;;24.02;36.08;101524.94;5033969;28;46771;-76
2022/06/14 11:26:21;;;;;;;;;6.25;6.25;;;;;24.06;35.87;101514.56;5017309;28;45393;-78
2022/06/14 11:29:05;;;;;;;;;5.25;5.25;;;;;24.16;35.04;101512.72;5035751;28;45307;-77
2022/06/14 11:31:52;;;;;;;;;5.00;5.00;;;;;24.25;35.36;101511.91;5037055;28;45581;-78
2022/06/14 11:34:34;;;;;;;;;5.75;5.75;;;;;24.35;34.98;101507.31;5037178;28;46120;-79
2022/06/14 11:37:37;;;;;;;;;8.75;7.00;;;;;24.44;34.05;101501.00;5035233;28;45522;-79
2022/06/14 11:40:10;;;;;;;;;7.75;7.25;;;;;24.49;34.96;101501.47;5037265;28;45363;-75
2022/06/14 11:43:03;;;;;;;;;4.75;4.75;;;;;24.44;35.18;101495.50;5019597;28;45903;-78
2022/06/14 11:45:38;;;;;;;;;8.00;6.50;;;;;24.42;35.08;101486.56;5039075;28;46182;-80
2022/06/14 11:48:07;;;;;;;;;7.25;7.25;;;;;24.44;35.03;101480.94;5038334;28;45612;-79
2022/06/14 11:50:42;;;;;;;;;4.75;4.50;;;;;24.38;34.86;101476.03;5017990;28;45400;-78
2022/06/14 11:53:16;;;;;;;;;6.00;4.25;;;;;24.48;34.79;101488.75;5037199;28;45581;-78
2022/06/14 11:55:48;;;;;;;;;5.25;4.75;;;;;24.52;34.56;101479.22;5037530;28;46063;-79
2022/06/14 11:58:17;;;;;;;;;5.75;4.50;;;;;24.62;34.49;101472.88;5039391;28;45543;-78
2022/06/14 12:01:16;;;;;;;;;5.00;5.00;;;;;24.76;33.31;101465.09;5036824;28;45463;-78
2022/06/14 12:03:59;;;;;;;;;6.75;6.00;;;;;24.92;34.47;101471.91;5037881;28;45854;-79
2022/06/14 12:06:50;;;;;;;;;6.00;6.00;;;;;24.87;34.29;101470.44;5036990;28;46131;-76
2022/06/14 12:09:15;;;;;;;;;6.75;6.75;;;;;24.89;33.56;101471.16;5035119;28;45574;-76
2022/06/14 12:11:53;;;;;;;;;5.50;3.50;;;;;24.88;34.32;101457.59;5036053;28;45487;-76
2022/06/14 12:14:34;;;;;;;;;7.75;6.25;;;;;25.02;34.07;101467.25;5036226;28;46003;-77
2022/06/14 12:17:28;;;;;;;;;8.00;7.00;;;;;25.04;33.84;101457.88;5036118;28;46554;-77
2022/06/14 12:20:05;;;;;;;;;4.75;4.75;;;;;25.12;33.65;101458.00;5024247;28;45352;-77
2022/06/14 12:23:01;;;;;;;;;4.25;4.00;;;;;25.08;33.08;101442.00;5018652;28;45415;-76
2022/06/14 12:28:38;;;;;;;;;5.25;5.25;;;;;25.40;32.06;101441.63;5035688;28;45916;-76
2022/06/14 12:31:15;;;;;;;;;5.00;5.00;;;;;25.41;33.17;101427.75;4994603;28;45544;-75
2022/06/14 12:33:47;;;;;;;;;7.50;5.75;;;;;25.39;32.83;101420.69;5035882;28;45384;-76
2022/06/14 12:36:13;;;;;;;;;5.50;5.00;;;;;25.53;32.66;101431.16;5036025;28;45344;-76
2022/06/14 12:38:41;;;;;;;;;5.25;5.25;;;;;25.52;32.64;101421.22;5035714;28;45276;-76
2022/06/14 12:41:06;;;;;;;;;7.00;4.75;;;;;25.62;32.00;101417.44;5034889;28;45395;-76
2022/06/14 12:43:38;;;;;;;;;8.50;7.25;;;;;25.76;32.12;101423.47;5036187;28;45289;-75
2022/06/14 12:46:10;;;;;;;;;7.25;5.00;;;;;25.75;32.31;101414.34;5035919;28;45450;-76
2022/06/14 12:48:55;;;;;;;;;10.25;6.00;;;;;25.79;32.35;101420.38;5036007;28;45372;-77
2022/06/14 12:51:28;;;;;;;;;6.50;5.50;;;;;25.94;32.11;101421.63;5036024;28;45475;-76
2022/06/14 12:53:56;;;;;;;;;5.00;5.00;;;;;26.18;31.02;101421.91;5035672;28;45388;-77
2022/06/14 12:56:44;;;;;;;;;21.00;17.00;;;;;26.46;31.45;101424.63;5035072;28;45376;-76
2022/06/14 12:59:37;;;;;;;;;6.50;6.50;;;;;26.69;29.90;101418.50;5019476;28;45407;-77
2022/06/14 13:02:17;;;;;;;;;5.75;4.75;;;;;26.74;30.71;101434.53;5024907;28;45504;-76
2022/06/14 13:04:49;;;;;;;;;8.50;5.25;;;;;26.73;31.03;101417.16;5035527;28;45542;-77
2022/06/14 13:07:31;;;;;;;;;5.00;5.00;;;;;26.85;30.65;101422.41;5035672;28;45502;-76
2022/06/14 13:10:24;;;;;;;;;3.00;3.00;;;;;26.91;30.19;101402.53;5035399;28;45988;-77
2022/06/14 13:13:23;;;;;;;;;3.50;3.50;;;;;27.05;29.85;101421.25;5035397;28;45349;-77
2022/06/14 13:16:19;;;;;;;;;5.50;5.00;;;;;27.15;30.45;101413.72;5034716;28;45537;-76
2022/06/14 13:19:03;;;;;;;;;6.25;5.00;;;;;27.14;30.03;101411.16;5034726;28;45512;-77
2022/06/14 13:22:02;;;;;;;;;5.25;5.00;;;;;27.08;29.80;101412.66;5035184;28;45316;-76
2022/06/14 13:25:06;;;;;;;;;5.00;4.25;;;;;27.11;29.69;101410.44;5035193;28;45395;-76
2022/06/14 13:27:59;;;;;;;;;4.25;4.25;;;;;27.22;29.29;101411.22;4984332;28;45410;-77
2022/06/14 13:30:50;;;;;;;;;6.00;5.25;;;;;27.49;29.20;101403.59;5034755;28;45766;-76
2022/06/14 13:33:31;;;;;;;;;2.00;2.00;;;;;27.73;27.38;101402.06;4979307;28;45509;-75
2022/06/14 13:36:32;;;;;;;;;4.00;4.00;;;;;28.02;27.56;101396.13;5034896;28;45308;-77
2022/06/14 13:39:11;;;;;;;;;4.25;4.25;;;;;28.02;27.27;101390.59;5021516;28;45345;-75
2022/06/14 13:42:00;;;;;;;;;5.50;5.50;;;;;28.02;28.37;101385.94;5034632;28;45426;-76
2022/06/14 13:44:33;;;;;;;;;5.25;4.00;;;;;27.96;27.90;101372.84;5034465;28;46133;-76
2022/06/14 13:47:02;;;;;;;;;4.25;4.00;;;;;28.08;27.39;101368.72;5034805;28;45332;-76
2022/06/14 13:49:35;;;;;;;;;5.00;5.00;;;;;28.02;28.38;101368.53;5034718;28;45463;-77
2022/06/14 13:52:25;;;;;;;;;5.50;5.50;;;;;27.95;28.14;101364.75;5033895;28;45490;-77
2022/06/14 13:55:00;;;;;;;;;3.25;3.25;;;;;27.87;28.53;101346.28;5034572;28;45405;-77
2022/06/14 13:57:47;;;;;;;;;6.50;4.00;;;;;27.86;29.24;101347.31;5034342;28;45468;-75
2022/06/14 14:00:18;;;;;;;;;8.50;4.75;;;;;28.01;29.21;101347.53;5034767;28;45364;-76
2022/06/14 14:02:59;;;;;;;;;5.25;5.25;;;;;28.10;28.25;101350.13;5034648;28;45367;-76
2022/06/14 14:05:24;;;;;;;;;7.50;5.75;;;;;28.21;28.38;101343.47;5034725;28;46143;-77
2022/06/14 14:08:15;;;;;;;;;5.75;4.50;;;;;28.13;28.50;101340.66;5034826;28;45478;-76
2022/06/14 14:10:54;;;;;;;;;5.25;5.25;;;;;28.19;27.95;101351.91;5034650;28;45812;-78
2022/06/14 14:13:54;;;;;;;;;4.00;3.50;;;;;28.18;28.60;101349.31;5034085;28;45340;-76
2022/06/14 14:16:20;;;;;;;;;4.00;4.00;;;;;28.11;28.53;101351.00;5002127;28;45823;-75
2022/06/14 14:18:59;;;;;;;;;6.25;5.00;;;;;28.02;28.43;101352.00;5033913;28;45395;-76
2022/06/14 14:21:45;;;;;;;;;8.25;4.75;;;;;28.03;28.77;101337.19;5034613;28;45289;-76
2022/06/14 14:24:16;;;;;;;;;4.00;4.00;;;;;28.00;28.63;101327.38;5033545;28;45329;-78
2022/06/14 14:27:00;;;;;;;;;7.00;4.00;;;;;28.09;28.65;101328.25;5033941;28;46147;-77
2022/06/14 14:29:56;;;;;;;;;6.50;4.75;;;;;28.08;28.47;101297.06;5033928;28;45326;-76
2022/06/14 14:32:34;;;;;;;;;3.00;3.00;;;;;28.39;28.26;101307.47;5028181;28;45383;-76
2022/06/14 14:35:13;;;;;;;;;7.00;4.75;;;;;28.51;27.46;101306.06;5015916;28;45503;-76
2022/06/14 14:37:45;;;;;;;;;5.00;4.00;;;;;28.60;27.77;101305.03;5034043;28;46118;-77
2022/06/14 14:40:35;;;;;;;;;4.00;4.00;;;;;28.49;27.97;101303.50;5034369;28;45419;-78
2022/06/14 14:43:11;;;;;;;;;4.50;3.00;;;;;28.54;27.50;101308.47;5034203;28;45542;-77
2022/06/14 14:45:39;;;;;;;;;5.00;4.50;;;;;28.72;26.47;101302.78;5034199;28;45357;-76
2022/06/14 14:48:21;;;;;;;;;5.25;4.00;;;;;29.00;26.91;101295.00;5033721;28;45421;-76
2022/06/14 14:51:13;;;;;;;;;3.00;2.75;;;;;29.02;26.80;101291.00;5028361;28;45419;-77
2022/06/14 14:53:58;;;;;;;;;4.75;4.75;;;;;29.26;25.80;101273.50;5034115;28;45470;-77
2022/06/14 14:56:36;;;;;;;;;6.00;6.00;;;;;29.51;26.50;101275.16;5033845;28;45386;-77
2022/06/14 14:59:16;;;;;;;;;5.00;5.00;;;;;29.67;26.29;101268.66;5015655;28;48335;-77
2022/06/14 15:05:23;;;;;;;;;4.00;4.00;;;;;30.02;25.71;101275.56;5037598;28;45495;-76
2022/06/14 15:08:06;;;;;;;;;5.00;5.00;;;;;29.93;25.41;101277.50;5041100;28;45368;-82
2022/06/14 15:11:02;;;;;;;;;6.00;6.00;;;;;29.86;26.03;101282.00;5022223;28;46440;-82
2022/06/14 15:13:40;;;;;;;;;4.75;4.50;;;;;29.71;25.48;101284.69;5039887;28;45447;-79
2022/06/14 15:16:17;;;;;;;;;3.25;3.00;;;;;29.87;25.04;101283.72;5038556;28;45411;-79
2022/06/14 15:21:31;;;;;;;;;6.00;3.50;;;;;30.17;24.63;101268.19;5038871;28;45724;-80
2022/06/14 15:24:04;;;;;;;;;6.50;4.75;;;;;30.21;25.36;101257.56;5038709;28;45359;-79
2022/06/14 15:26:30;;;;;;;;;4.00;4.00;;;;;30.37;25.06;101269.38;5036919;28;45572;-78
2022/06/14 15:29:01;;;;;;;;;5.25;4.50;;;;;30.50;25.04;101270.66;5031583;28;45466;-78
2022/06/14 15:31:26;;;;;;;;;5.25;5.00;;;;;30.69;25.21;101246.09;5018979;28;47716;-79
2022/06/14 15:33:54;;;;;;;;;3.75;3.75;;;;;30.90;24.56;101255.56;5037916;28;45463;-79
2022/06/14 15:36:32;;;;;;;;;6.00;5.00;;;;;31.09;25.07;101258.66;5037665;28;45332;-79
2022/06/14 15:39:16;;;;;;;;;5.50;4.00;;;;;31.13;24.18;101254.47;5036286;28;45496;-80
2022/06/14 15:41:41;;;;;;;;;3.50;3.50;;;;;31.25;23.93;101254.81;5020132;28;47382;-78
2022/06/14 15:44:30;;;;;;;;;4.25;4.25;;;;;31.13;23.85;101245.28;5037047;28;45459;-78
2022/06/14 15:46:57;;;;;;;;;4.75;3.25;;;;;31.15;24.24;101248.69;5006553;28;45444;-75
2022/06/14 15:49:27;;;;;;;;;3.50;3.50;;;;;31.15;24.24;101244.03;5036087;28;46156;-76
2022/06/14 15:51:55;;;;;;;;;5.00;5.00;;;;;31.34;23.31;101245.34;5036658;28;46070;-75
2022/06/14 15:54:33;;;;;;;;;5.75;5.75;;;;;31.46;23.46;101240.16;5036138;28;45333;-76
2022/06/14 15:57:26;;;;;;;;;4.00;4.00;;;;;31.41;23.84;101242.66;5036702;28;45440;-76
2022/06/14 16:00:21;;;;;;;;;6.00;5.00;;;;;31.56;23.21;101233.25;5023939;28;45418;-79
2022/06/14 16:03:04;;;;;;;;;4.00;4.00;;;;;31.77;23.40;101232.47;5032312;28;46283;-75
2022/06/14 16:05:34;;;;;;;;;4.00;3.50;;;;;31.94;22.94;101221.97;5035807;28;45381;-75
2022/06/14 16:08:19;;;;;;;;;2.75;2.75;;;;;31.83;23.38;101231.66;5029914;28;45475;-77
2022/06/14 16:11:12;;;;;;;;;4.00;4.00;;;;;31.75;24.00;101230.94;5035932;28;45324;-78
2022/06/14 16:13:40;;;;;;;;;4.00;3.00;;;;;31.84;23.93;101227.84;5031730;28;45478;-76
2022/06/14 16:16:42;;;;;;;;;4.50;3.75;;;;;31.85;23.70;101220.38;5034886;28;45540;-77
2022/06/14 16:19:39;;;;;;;;;4.25;4.25;;;;;31.88;24.14;101220.84;4973283;28;45481;-76
2022/06/14 16:22:16;;;;;;;;;5.75;4.50;;;;;31.95;24.17;101219.00;5035418;28;45471;-77
2022/06/14 16:24:45;;;;;;;;;5.00;5.00;;;;;31.81;23.75;101213.53;5035418;28;45565;-77
2022/06/14 16:27:24;;;;;;;;;4.75;4.75;;;;;31.94;24.04;101213.63;5035579;28;45418;-76
2022/06/14 16:29:49;;;;;;;;;3.50;3.00;;;;;32.13;23.63;101217.66;5035842;28;45401;-78
2022/06/14 16:32:52;;;;;;;;;6.00;4.75;;;;;32.20;22.97;101216.69;5035187;28;45331;-77
2022/06/14 16:35:37;;;;;;;;;6.75;5.00;;;;;32.35;22.96;101213.81;5035574;28;46565;-77
2022/06/14 16:38:27;;;;;;;;;4.25;3.50;;;;;32.48;23.77;101216.72;5035647;28;45495;-76
2022/06/14 16:41:12;;;;;;;;;5.00;5.00;;;;;32.40;23.66;101205.78;5035523;28;45292;-77
2022/06/14 16:43:47;;;;;;;;;5.00;5.00;;;;;32.30;23.52;101211.66;5035713;28;45429;-76
2022/06/14 16:46:20;;;;;;;;;5.75;4.00;;;;;32.43;22.74;101208.13;5035298;28;45664;-77
2022/06/14 16:49:00;;;;;;;;;4.00;4.00;;;;;32.20;23.47;101197.28;5030439;28;45492;-74
2022/06/14 16:51:53;;;;;;;;;4.75;4.75;;;;;31.90;23.84;101202.06;5016380;28;45525;-74
2022/06/14 16:54:34;;;;;;;;;4.75;4.75;;;;;31.76;23.49;101199.38;5016173;28;45380;-75
2022/06/14 16:57:12;;;;;;;;;6.00;6.00;;;;;31.72;24.14;101193.38;5035782;28;46249;-75
2022/06/14 16:59:40;;;;;;;;;6.25;4.00;;;;;31.66;23.26;101196.06;5034225;28;45456;-74
2022/06/14 17:02:26;;;;;;;;;3.00;3.00;;;;;31.48;24.48;101197.31;5035393;28;45355;-74
2022/06/14 17:05:01;;;;;;;;;3.50;3.00;;;;;31.38;24.13;101193.19;5035448;28;45378;-74
2022/06/14 17:07:53;;;;;;;;;2.75;2.25;;;;;31.32;23.33;101188.41;5034580;28;45446;-76
2022/06/14 17:10:44;;;;;;;;;4.50;4.50;;;;;31.36;23.95;101182.28;5035211;28;45444;-75
2022/06/14 17:13:18;;;;;;;;;5.50;4.00;;;;;31.31;24.20;101192.22;5035110;28;45514;-75